createdAt,value
2023-04-11T00:00:39.940Z,2054.00
2023-04-11T00:01:39.923Z,2054.00
2023-04-11T00:02:40.016Z,2055.00
2023-04-11T00:03:39.943Z,2056.00
2023-04-11T00:04:39.892Z,2049.00
2023-04-11T00:05:39.723Z,2056.00
2023-04-11T00:06:39.701Z,2059.00
2023-04-11T00:07:39.652Z,2061.00
2023-04-11T00:08:39.611Z,2047.00
2023-04-11T00:09:39.570Z,2048.00
2023-04-11T00:10:39.527Z,2068.00
2023-04-11T00:11:39.495Z,2053.00
2023-04-11T00:12:39.470Z,2043.00
2023-04-11T00:13:39.408Z,2038.00
2023-04-11T00:14:39.370Z,2059.00
2023-04-11T00:15:39.391Z,2042.00
2023-04-11T00:16:39.408Z,2048.00
2023-04-11T00:17:39.367Z,2044.00
2023-04-11T00:18:39.425Z,2047.00
2023-04-11T00:19:39.381Z,2035.00
2023-04-11T00:20:39.374Z,2035.00
2023-04-11T00:21:39.385Z,2048.00
2023-04-11T00:22:39.394Z,2037.00
2023-04-11T00:23:39.398Z,2024.00
2023-04-11T00:24:39.402Z,2038.00
2023-04-11T00:25:39.393Z,2041.00
2023-04-11T00:26:39.435Z,2031.00
2023-04-11T00:27:39.392Z,2050.00
2023-04-11T00:28:39.395Z,2018.00
2023-04-11T00:29:39.408Z,2038.00
2023-04-11T00:30:39.425Z,2022.00
2023-04-11T00:31:39.470Z,2037.00
2023-04-11T00:32:39.428Z,2040.00
2023-04-11T00:33:40.975Z,2029.00
2023-04-11T00:34:39.373Z,2030.00
2023-04-11T00:35:39.382Z,2031.00
2023-04-11T00:36:39.348Z,2021.00
2023-04-11T00:37:39.300Z,2033.00
2023-04-11T00:38:39.218Z,2033.00
2023-04-11T00:39:39.166Z,2026.00
2023-04-11T00:40:39.137Z,2031.00
2023-04-11T00:41:39.078Z,2012.00
2023-04-11T00:42:39.039Z,2023.00
2023-04-11T00:43:38.982Z,2022.00
2023-04-11T00:44:38.948Z,2016.00
2023-04-11T00:45:38.931Z,2030.00
2023-04-11T00:46:38.894Z,2024.00
2023-04-11T00:47:38.989Z,2024.00
2023-04-11T00:48:38.883Z,2023.00
2023-04-11T00:49:38.878Z,2007.00
2023-04-11T00:50:38.886Z,2018.00
2023-04-11T00:51:38.900Z,2012.00
2023-04-11T00:52:38.909Z,2007.00
2023-04-11T00:53:38.917Z,2010.00
2023-04-11T00:54:38.942Z,2008.00
2023-04-11T00:55:38.932Z,2004.00
2023-04-11T00:56:38.954Z,2013.00
2023-04-11T00:57:38.994Z,2013.00
2023-04-11T00:58:38.965Z,2016.00
2023-04-11T00:59:38.976Z,2003.00
2023-04-11T01:00:38.980Z,1996.00
2023-04-11T01:01:39.059Z,2014.00
2023-04-11T01:02:39.167Z,1987.00
2023-04-11T01:03:39.092Z,1999.00
2023-04-11T01:04:39.007Z,1992.00
2023-04-11T01:05:39.019Z,2001.00
2023-04-11T01:06:39.038Z,1987.00
2023-04-11T01:07:39.069Z,2009.00
2023-04-11T01:08:39.069Z,1997.00
2023-04-11T01:09:39.077Z,1982.00
2023-04-11T01:10:39.114Z,1988.00
2023-04-11T01:11:39.104Z,1992.00
2023-04-11T01:12:39.135Z,2001.00
2023-04-11T01:13:39.155Z,1990.00
2023-04-11T01:14:39.145Z,1984.00
2023-04-11T01:15:39.159Z,1981.00
2023-04-11T01:16:39.209Z,1987.00
2023-04-11T01:17:39.233Z,1983.00
2023-04-11T01:18:39.178Z,1980.00
2023-04-11T01:19:39.208Z,1981.00
2023-04-11T01:20:39.194Z,1981.00
2023-04-11T01:21:39.222Z,1969.00
2023-04-11T01:22:39.235Z,1987.00
2023-04-11T01:23:39.243Z,1980.00
2023-04-11T01:24:39.268Z,1985.00
2023-04-11T01:25:39.297Z,1982.00
2023-04-11T01:26:39.291Z,1981.00
2023-04-11T01:27:39.329Z,1984.00
2023-04-11T01:28:39.341Z,1963.00
2023-04-11T01:29:39.335Z,1967.00
2023-04-11T01:30:39.365Z,1959.00
2023-04-11T01:31:39.350Z,1981.00
2023-04-11T01:32:39.413Z,1979.00
2023-04-11T01:33:39.371Z,1963.00
2023-04-11T01:34:39.378Z,1974.00
2023-04-11T01:35:39.444Z,1979.00
2023-04-11T01:36:39.390Z,1968.00
2023-04-11T01:37:39.401Z,1964.00
2023-04-11T01:38:39.426Z,1936.00
2023-04-11T01:39:39.432Z,1950.00
2023-04-11T01:40:39.466Z,1951.00
2023-04-11T01:41:39.461Z,1949.00
2023-04-11T01:42:39.470Z,1970.00
2023-04-11T01:43:39.478Z,1955.00
2023-04-11T01:44:39.481Z,1944.00
2023-04-11T01:45:39.485Z,1949.00
2023-04-11T01:46:39.502Z,1947.00
2023-04-11T01:47:39.597Z,1953.00
2023-04-11T01:48:39.568Z,1932.00
2023-04-11T01:49:39.500Z,1948.00
2023-04-11T01:50:39.514Z,1950.00
2023-04-11T01:51:39.514Z,1949.00
2023-04-11T01:52:39.526Z,1940.00
2023-04-11T01:53:39.531Z,1937.00
2023-04-11T01:54:39.537Z,1931.00
2023-04-11T01:55:39.545Z,1926.00
2023-04-11T01:56:39.573Z,1932.00
2023-04-11T01:57:39.595Z,1932.00
2023-04-11T01:58:39.575Z,1932.00
2023-04-11T01:59:39.533Z,1932.00
2023-04-11T02:00:39.506Z,1934.00
2023-04-11T02:01:39.627Z,1938.00
2023-04-11T02:02:39.479Z,1933.00
2023-04-11T02:03:39.465Z,1951.00
2023-04-11T02:04:39.320Z,1929.00
2023-04-11T02:05:39.288Z,1935.00
2023-04-11T02:06:39.241Z,1936.00
2023-04-11T02:07:39.206Z,1933.00
2023-04-11T02:08:39.160Z,1929.00
2023-04-11T02:09:39.122Z,1936.00
2023-04-11T02:10:39.124Z,1942.00
2023-04-11T02:11:39.133Z,1940.00
2023-04-11T02:12:39.143Z,1930.00
2023-04-11T02:13:39.156Z,1926.00
2023-04-11T02:14:39.152Z,1914.00
2023-04-11T02:15:39.174Z,1933.00
2023-04-11T02:16:39.177Z,1923.00
2023-04-11T02:17:39.178Z,1924.00
2023-04-11T02:18:39.109Z,1924.00
2023-04-11T02:19:39.052Z,1924.00
2023-04-11T02:20:39.026Z,1928.00
2023-04-11T02:21:39.060Z,1920.00
2023-04-11T02:22:38.952Z,1910.00
2023-04-11T02:23:38.925Z,1927.00
2023-04-11T02:24:38.881Z,1923.00
2023-04-11T02:25:38.819Z,1932.00
2023-04-11T02:26:38.786Z,1917.00
2023-04-11T02:27:38.754Z,1912.00
2023-04-11T02:28:38.741Z,1921.00
2023-04-11T02:29:38.745Z,1912.00
2023-04-11T02:30:38.764Z,1918.00
2023-04-11T02:31:38.824Z,1904.00
2023-04-11T02:32:38.899Z,1913.00
2023-04-11T02:33:38.785Z,1909.00
2023-04-11T02:34:38.791Z,1926.00
2023-04-11T02:35:38.823Z,1898.00
2023-04-11T02:36:38.806Z,1909.00
2023-04-11T02:37:38.827Z,1902.00
2023-04-11T02:38:38.817Z,1916.00
2023-04-11T02:39:38.831Z,1901.00
2023-04-11T02:40:38.829Z,1890.00
2023-04-11T02:41:38.844Z,1912.00
2023-04-11T02:42:38.900Z,1886.00
2023-04-11T02:43:38.865Z,1862.00
2023-04-11T02:44:38.871Z,1783.00
2023-04-11T02:45:38.862Z,1860.00
2023-04-11T02:46:38.925Z,1759.00
2023-04-11T02:47:38.969Z,1422.00
2023-04-11T02:48:38.894Z,1323.00
2023-04-11T02:49:38.897Z,1143.00
2023-04-11T02:50:38.912Z,1009.00
2023-04-11T02:51:38.920Z,904.00
2023-04-11T02:52:38.929Z,856.00
2023-04-11T02:53:38.936Z,803.00
2023-04-11T02:54:38.948Z,711.00
2023-04-11T02:55:38.953Z,639.00
2023-04-11T02:56:39.204Z,616.00
2023-04-11T02:57:38.990Z,607.00
2023-04-11T02:58:39.049Z,582.00
2023-04-11T02:59:39.026Z,553.00
2023-04-11T03:00:39.111Z,523.00
2023-04-11T03:01:39.255Z,500.00
2023-04-11T03:02:39.356Z,503.00
2023-04-11T03:03:39.288Z,500.00
2023-04-11T03:04:39.187Z,506.00
2023-04-11T03:05:39.154Z,500.00
2023-04-11T03:06:39.159Z,500.00
2023-04-11T03:07:39.166Z,500.00
2023-04-11T03:08:39.201Z,500.00
2023-04-11T03:09:39.183Z,497.00
2023-04-11T03:10:39.175Z,502.00
2023-04-11T03:11:39.158Z,500.00
2023-04-11T03:12:39.150Z,502.00
2023-04-11T03:13:39.119Z,502.00
2023-04-11T03:14:39.099Z,500.00
2023-04-11T03:15:39.156Z,507.00
2023-04-11T03:16:39.053Z,505.00
2023-04-11T03:17:39.081Z,504.00
2023-04-11T03:18:39.012Z,506.00
2023-04-11T03:19:38.972Z,500.00
2023-04-11T03:20:38.953Z,499.00
2023-04-11T03:21:38.942Z,505.00
2023-04-11T03:22:38.927Z,509.00
2023-04-11T03:23:38.895Z,503.00
2023-04-11T03:24:38.851Z,509.00
2023-04-11T03:25:38.886Z,502.00
2023-04-11T03:26:38.810Z,505.00
2023-04-11T03:27:38.805Z,501.00
2023-04-11T03:28:38.789Z,500.00
2023-04-11T03:29:38.750Z,474.00
2023-04-11T03:30:38.725Z,466.00
2023-04-11T03:31:38.695Z,452.00
2023-04-11T03:32:38.669Z,449.00
2023-04-11T03:33:38.615Z,452.00
2023-04-11T03:34:38.581Z,438.00
2023-04-11T03:35:38.583Z,434.00
2023-04-11T03:36:38.544Z,428.00
2023-04-11T03:37:38.492Z,420.00
2023-04-11T03:38:38.465Z,419.00
2023-04-11T03:39:38.444Z,408.00
2023-04-11T03:40:38.412Z,413.00
2023-04-11T03:41:38.388Z,417.00
2023-04-11T03:42:38.357Z,400.00
2023-04-11T03:43:38.345Z,400.00
2023-04-11T03:44:38.305Z,431.00
2023-04-11T03:45:38.270Z,481.00
2023-04-11T03:46:38.277Z,500.00
2023-04-11T03:47:38.275Z,499.00
2023-04-11T03:48:38.194Z,514.00
2023-04-11T03:49:38.167Z,521.00
2023-04-11T03:50:38.117Z,503.00
2023-04-11T03:51:38.091Z,502.00
2023-04-11T03:52:38.074Z,501.00
2023-04-11T03:53:38.029Z,503.00
2023-04-11T03:54:37.992Z,507.00
2023-04-11T03:55:37.968Z,516.00
2023-04-11T03:56:37.938Z,516.00
2023-04-11T03:57:37.911Z,510.00
2023-04-11T03:58:37.885Z,500.00
2023-04-11T03:59:37.852Z,522.00
2023-04-11T04:00:37.826Z,522.00
2023-04-11T04:01:37.873Z,524.00
2023-04-11T04:02:38.001Z,535.00
2023-04-11T04:03:38.093Z,519.00
2023-04-11T04:04:37.815Z,528.00
2023-04-11T04:05:37.695Z,511.00
2023-04-11T04:06:37.656Z,503.00
2023-04-11T04:07:37.628Z,516.00
2023-04-11T04:08:37.683Z,538.00
2023-04-11T04:09:37.676Z,527.00
2023-04-11T04:10:37.698Z,523.00
2023-04-11T04:11:37.697Z,520.00
2023-04-11T04:12:37.740Z,525.00
2023-04-11T04:13:37.753Z,524.00
2023-04-11T04:14:37.771Z,519.00
2023-04-11T04:15:37.785Z,534.00
2023-04-11T04:16:37.826Z,512.00
2023-04-11T04:17:37.893Z,515.00
2023-04-11T04:18:37.837Z,511.00
2023-04-11T04:19:37.861Z,512.00
2023-04-11T04:20:37.904Z,506.00
2023-04-11T04:21:37.927Z,522.00
2023-04-11T04:22:37.937Z,505.00
2023-04-11T04:23:37.955Z,511.00
2023-04-11T04:24:37.975Z,501.00
2023-04-11T04:25:37.985Z,518.00
2023-04-11T04:26:38.050Z,520.00
2023-04-11T04:27:38.043Z,536.00
2023-04-11T04:28:38.072Z,530.00
2023-04-11T04:29:38.136Z,532.00
2023-04-11T04:30:38.181Z,531.00
2023-04-11T04:31:38.169Z,524.00
2023-04-11T04:32:38.309Z,518.00
2023-04-11T04:33:38.206Z,516.00
2023-04-11T04:34:38.215Z,528.00
2023-04-11T04:35:38.296Z,536.00
2023-04-11T04:36:38.293Z,537.00
2023-04-11T04:37:38.331Z,531.00
2023-04-11T04:38:38.475Z,522.00
2023-04-11T04:39:38.374Z,524.00
2023-04-11T04:40:38.406Z,526.00
2023-04-11T04:41:38.431Z,529.00
2023-04-11T04:42:38.410Z,524.00
2023-04-11T04:43:38.385Z,519.00
2023-04-11T04:44:38.353Z,529.00
2023-04-11T04:45:38.398Z,523.00
2023-04-11T04:46:38.318Z,532.00
2023-04-11T04:47:38.388Z,541.00
2023-04-11T04:48:38.278Z,525.00
2023-04-11T04:49:38.238Z,523.00
2023-04-11T04:50:38.221Z,526.00
2023-04-11T04:51:38.181Z,526.00
2023-04-11T04:52:38.167Z,528.00
2023-04-11T04:53:38.130Z,528.00
2023-04-11T04:54:38.097Z,526.00
2023-04-11T04:55:38.076Z,529.00
2023-04-11T04:56:38.042Z,534.00
2023-04-11T04:57:38.016Z,545.00
2023-04-11T04:58:37.994Z,526.00
2023-04-11T04:59:37.983Z,536.00
2023-04-11T05:00:37.974Z,536.00
2023-04-11T05:01:38.125Z,537.00
2023-04-11T05:02:38.130Z,533.00
2023-04-11T05:03:38.250Z,534.00
2023-04-11T05:04:38.137Z,528.00
2023-04-11T05:05:38.170Z,535.00
2023-04-11T05:06:38.213Z,543.00
2023-04-11T05:07:38.259Z,546.00
2023-04-11T05:08:38.250Z,539.00
2023-04-11T05:09:38.229Z,546.00
2023-04-11T05:10:38.182Z,548.00
2023-04-11T05:11:38.207Z,551.00
2023-04-11T05:12:38.133Z,552.00
2023-04-11T05:13:38.118Z,555.00
2023-04-11T05:14:38.102Z,563.00
2023-04-11T05:15:38.045Z,565.00
2023-04-11T05:16:38.116Z,577.00
2023-04-11T05:17:38.106Z,568.00
2023-04-11T05:18:38.054Z,566.00
2023-04-11T05:19:38.030Z,565.00
2023-04-11T05:20:38.000Z,562.00
2023-04-11T05:21:37.971Z,568.00
2023-04-11T05:22:37.975Z,561.00
2023-04-11T05:23:37.926Z,578.00
2023-04-11T05:24:37.903Z,582.00
2023-04-11T05:25:37.851Z,582.00
2023-04-11T05:26:37.832Z,587.00
2023-04-11T05:27:37.800Z,581.00
2023-04-11T05:28:37.842Z,592.00
2023-04-11T05:29:37.900Z,589.00
2023-04-11T05:30:38.073Z,596.00
2023-04-11T05:31:37.995Z,650.00
2023-04-11T05:32:38.092Z,862.00
2023-04-11T05:33:38.154Z,998.00
2023-04-11T05:34:38.123Z,1158.00
2023-04-11T05:35:38.436Z,1421.00
2023-04-11T05:36:38.204Z,1572.00
2023-04-11T05:37:38.242Z,1725.00
2023-04-11T05:38:38.339Z,1903.00
2023-04-11T05:39:38.299Z,2065.00
2023-04-11T05:40:38.334Z,2244.00
2023-04-11T05:41:38.341Z,2337.00
2023-04-11T05:42:38.374Z,2444.00
2023-04-11T05:43:38.397Z,2523.00
2023-04-11T05:44:38.423Z,2623.00
2023-04-11T05:45:38.407Z,2675.00
2023-04-11T05:46:38.576Z,2727.00
2023-04-11T05:47:38.398Z,2793.00
2023-04-11T05:48:38.424Z,2879.00
2023-04-11T05:49:38.364Z,2881.00
2023-04-11T05:50:38.335Z,2884.00
2023-04-11T05:51:38.305Z,2914.00
2023-04-11T05:52:38.277Z,2989.00
2023-04-11T05:53:38.224Z,3098.00
2023-04-11T05:54:38.219Z,3276.00
2023-04-11T05:55:38.157Z,3377.00
2023-04-11T05:56:38.136Z,3395.00
2023-04-11T05:57:38.105Z,3412.00
2023-04-11T05:58:38.075Z,3461.00
2023-04-11T05:59:38.074Z,3499.00
2023-04-11T06:00:37.998Z,3509.00
2023-04-11T06:01:38.013Z,3532.00
2023-04-11T06:02:38.091Z,3562.00
2023-04-11T06:03:38.080Z,3578.00
2023-04-11T06:04:38.063Z,3601.00
2023-04-11T06:05:37.862Z,3616.00
2023-04-11T06:06:37.812Z,3652.00
2023-04-11T06:07:37.761Z,3657.00
2023-04-11T06:08:37.739Z,3666.00
2023-04-11T06:09:37.728Z,3704.00
2023-04-11T06:10:37.640Z,3720.00
2023-04-11T06:11:37.610Z,3759.00
2023-04-11T06:12:37.592Z,3794.00
2023-04-11T06:13:37.526Z,3841.00
2023-04-11T06:14:40.162Z,3844.00
2023-04-11T06:15:37.499Z,3902.00
2023-04-11T06:16:37.437Z,3920.00
2023-04-11T06:17:37.428Z,3913.00
2023-04-11T06:18:37.438Z,3923.00
2023-04-11T06:19:37.401Z,3912.00
2023-04-11T06:20:37.318Z,3930.00
2023-04-11T06:21:37.271Z,3940.00
2023-04-11T06:22:37.239Z,3964.00
2023-04-11T06:23:37.261Z,3962.00
2023-04-11T06:24:37.208Z,3960.00
2023-04-11T06:25:37.130Z,3998.00
2023-04-11T06:26:37.114Z,3986.00
2023-04-11T06:27:37.066Z,4016.00
2023-04-11T06:28:37.067Z,4013.00
2023-04-11T06:29:37.009Z,4028.00
2023-04-11T06:30:36.949Z,4050.00
2023-04-11T06:31:36.984Z,4040.00
2023-04-11T06:32:36.921Z,4099.00
2023-04-11T06:33:36.860Z,4099.00
2023-04-11T06:34:36.841Z,4077.00
2023-04-11T06:35:36.860Z,4085.00
2023-04-11T06:36:36.751Z,4093.00
2023-04-11T06:37:36.704Z,4080.00
2023-04-11T06:38:36.660Z,4090.00
2023-04-11T06:39:36.636Z,4107.00
2023-04-11T06:40:36.610Z,4141.00
2023-04-11T06:41:36.575Z,4148.00
2023-04-11T06:42:36.549Z,4142.00
2023-04-11T06:43:36.608Z,4143.00
2023-04-11T06:44:36.485Z,4047.00
2023-04-11T06:45:36.449Z,4054.00
2023-04-11T06:46:36.417Z,3984.00
2023-04-11T06:47:36.357Z,3527.00
2023-04-11T06:48:36.317Z,3253.00
2023-04-11T06:49:36.290Z,3236.00
2023-04-11T06:50:36.246Z,3152.00
2023-04-11T06:51:36.196Z,3199.00
2023-04-11T06:52:36.180Z,3148.00
2023-04-11T06:53:36.148Z,3002.00
2023-04-11T06:54:36.118Z,3039.00
2023-04-11T06:55:36.067Z,2955.00
2023-04-11T06:56:36.030Z,2923.00
2023-04-11T06:57:35.991Z,2903.00
2023-04-11T06:58:35.936Z,2874.00
2023-04-11T06:59:35.904Z,2847.00
2023-04-11T07:00:35.878Z,2831.00
2023-04-11T07:01:35.925Z,2841.00
2023-04-11T07:02:36.026Z,2828.00
2023-04-11T07:03:35.878Z,2824.00
2023-04-11T07:04:35.847Z,2804.00
2023-04-11T07:05:36.979Z,2839.00
2023-04-11T07:06:35.790Z,2798.00
2023-04-11T07:07:35.790Z,2756.00
2023-04-11T07:08:35.796Z,2714.00
2023-04-11T07:09:35.795Z,2699.00
2023-04-11T07:10:35.859Z,2609.00
2023-04-11T07:11:35.857Z,2585.00
2023-04-11T07:12:35.876Z,2621.00
2023-04-11T07:13:35.932Z,2638.00
2023-04-11T07:14:35.940Z,2558.00
2023-04-11T07:15:35.950Z,2527.00
2023-04-11T07:16:36.180Z,2566.00
2023-04-11T07:17:36.025Z,2544.00
2023-04-11T07:18:36.013Z,2498.00
2023-04-11T07:19:36.042Z,2450.00
2023-04-11T07:20:36.094Z,2451.00
2023-04-11T07:21:35.944Z,2462.00
2023-04-11T07:22:35.919Z,2490.00
2023-04-11T07:23:35.893Z,2479.00
2023-04-11T07:24:35.901Z,2480.00
2023-04-11T07:25:35.839Z,2551.00
2023-04-11T07:26:35.772Z,2488.00
2023-04-11T07:27:35.791Z,2505.00
2023-04-11T07:28:35.821Z,2558.00
2023-04-11T07:29:35.841Z,2570.00
2023-04-11T07:30:35.885Z,2607.00
2023-04-11T07:31:35.943Z,2592.00
2023-04-11T07:32:35.928Z,2582.00
2023-04-11T07:33:35.876Z,2573.00
2023-04-11T07:34:35.849Z,2554.00
2023-04-11T07:35:35.853Z,2592.00
2023-04-11T07:36:35.785Z,2611.00
2023-04-11T07:37:35.733Z,2667.00
2023-04-11T07:38:35.691Z,2745.00
2023-04-11T07:39:35.707Z,2530.00
2023-04-11T07:40:35.639Z,2388.00
2023-04-11T07:41:35.597Z,2287.00
2023-04-11T07:42:35.558Z,2122.00
2023-04-11T07:43:35.513Z,1927.00
2023-04-11T07:44:35.493Z,1646.00
2023-04-11T07:45:35.476Z,1571.00
2023-04-11T07:46:35.424Z,1363.00
2023-04-11T07:47:35.430Z,1324.00
2023-04-11T07:48:35.382Z,1300.00
2023-04-11T07:49:35.341Z,1211.00
2023-04-11T07:50:35.342Z,1198.00
2023-04-11T07:51:35.303Z,1195.00
2023-04-11T07:52:35.260Z,958.00
2023-04-11T07:53:35.212Z,896.00
2023-04-11T07:54:35.212Z,951.00
2023-04-11T07:55:35.254Z,902.00
2023-04-11T07:56:35.144Z,905.00
2023-04-11T07:57:35.175Z,900.00
2023-04-11T07:58:35.086Z,785.00
2023-04-11T07:59:35.079Z,737.00
2023-04-11T08:00:35.037Z,791.00
2023-04-11T08:01:34.989Z,781.00
2023-04-11T08:02:35.108Z,798.00
2023-04-11T08:03:35.201Z,701.00
2023-04-11T08:04:35.357Z,656.00
2023-04-11T08:05:34.876Z,618.00
2023-04-11T08:06:34.857Z,628.00
2023-04-11T08:07:34.812Z,649.00
2023-04-11T08:08:34.790Z,660.00
2023-04-11T08:09:34.763Z,632.00
2023-04-11T08:10:34.774Z,640.00
2023-04-11T08:11:34.705Z,655.00
2023-04-11T08:12:34.745Z,603.00
2023-04-11T08:13:34.752Z,573.00
2023-04-11T08:14:34.816Z,594.00
2023-04-11T08:15:34.858Z,572.00
2023-04-11T08:16:34.916Z,580.00
2023-04-11T08:17:34.942Z,513.00
2023-04-11T08:18:34.987Z,510.00
2023-04-11T08:19:34.961Z,513.00
2023-04-11T08:20:35.028Z,525.00
2023-04-11T08:21:35.043Z,496.00
2023-04-11T08:22:35.090Z,516.00
2023-04-11T08:23:35.024Z,528.00
2023-04-11T08:24:35.091Z,534.00
2023-04-11T08:25:35.037Z,502.00
2023-04-11T08:26:35.008Z,527.00
2023-04-11T08:27:34.970Z,543.00
2023-04-11T08:28:34.984Z,500.00
2023-04-11T08:29:34.955Z,498.00
2023-04-11T08:30:34.984Z,509.00
2023-04-11T08:31:34.935Z,500.00
2023-04-11T08:32:34.937Z,500.00
2023-04-11T08:33:34.883Z,501.00
2023-04-11T08:34:34.852Z,500.00
2023-04-11T08:35:34.853Z,501.00
2023-04-11T08:36:34.800Z,460.00
2023-04-11T08:37:34.768Z,485.00
2023-04-11T08:38:34.739Z,531.00
2023-04-11T08:39:34.713Z,551.00
2023-04-11T08:40:34.696Z,527.00
2023-04-11T08:41:34.665Z,532.00
2023-04-11T08:42:34.617Z,576.00
2023-04-11T08:43:34.576Z,559.00
2023-04-11T08:44:34.556Z,536.00
2023-04-11T08:45:34.515Z,544.00
2023-04-11T08:46:34.517Z,573.00
2023-04-11T08:47:34.703Z,572.00
2023-04-11T08:48:34.438Z,546.00
2023-04-11T08:49:34.369Z,587.00
2023-04-11T08:50:34.336Z,619.00
2023-04-11T08:51:34.346Z,636.00
2023-04-11T08:52:34.282Z,635.00
2023-04-11T08:53:34.256Z,727.00
2023-04-11T08:54:34.202Z,696.00
2023-04-11T08:55:34.164Z,654.00
2023-04-11T08:56:34.140Z,624.00
2023-04-11T08:57:34.116Z,705.00
2023-04-11T08:58:34.116Z,662.00
2023-04-11T08:59:34.071Z,674.00
2023-04-11T09:00:34.241Z,677.00
2023-04-11T09:01:34.217Z,864.00
2023-04-11T09:02:34.204Z,792.00
2023-04-11T09:03:34.215Z,676.00
2023-04-11T09:04:34.095Z,663.00
2023-04-11T09:05:34.090Z,638.00
2023-04-11T09:06:34.146Z,641.00
2023-04-11T09:07:34.138Z,659.00
2023-04-11T09:08:34.155Z,650.00
2023-04-11T09:09:34.153Z,651.00
2023-04-11T09:10:34.119Z,652.00
2023-04-11T09:11:34.121Z,654.00
2023-04-11T09:12:34.070Z,676.00
2023-04-11T09:13:34.040Z,749.00
2023-04-11T09:14:34.215Z,745.00
2023-04-11T09:15:34.015Z,801.00
2023-04-11T09:16:33.975Z,730.00
2023-04-11T09:17:33.979Z,766.00
2023-04-11T09:18:34.012Z,688.00
2023-04-11T09:19:34.016Z,730.00
2023-04-11T09:20:34.076Z,684.00
2023-04-11T09:21:34.064Z,685.00
2023-04-11T09:22:34.003Z,694.00
2023-04-11T09:23:33.996Z,710.00
2023-04-11T09:24:35.330Z,710.00
2023-04-11T09:25:33.943Z,692.00
2023-04-11T09:26:33.916Z,758.00
2023-04-11T09:27:33.932Z,778.00
2023-04-11T09:28:33.866Z,807.00
2023-04-11T09:29:33.870Z,754.00
2023-04-11T09:30:33.942Z,780.00
2023-04-11T09:31:33.954Z,776.00
2023-04-11T09:32:34.110Z,789.00
2023-04-11T09:33:33.860Z,788.00
2023-04-11T09:34:33.843Z,813.00
2023-04-11T09:35:33.828Z,812.00
2023-04-11T09:36:33.988Z,781.00
2023-04-11T09:37:33.800Z,763.00
2023-04-11T09:38:33.778Z,743.00
2023-04-11T09:39:33.734Z,745.00
2023-04-11T09:40:33.705Z,769.00
2023-04-11T09:41:33.710Z,816.00
2023-04-11T09:42:33.833Z,953.00
2023-04-11T09:43:33.651Z,1166.00
2023-04-11T09:45:07.189Z,500.00
2023-04-11T09:46:07.325Z,500.00
2023-04-11T09:47:07.309Z,500.00
2023-04-11T09:48:07.312Z,500.00
2023-04-11T09:49:07.510Z,500.00
2023-04-11T09:50:07.265Z,510.00
2023-04-11T09:51:07.457Z,492.00
2023-04-11T09:52:07.364Z,510.00
2023-04-11T09:53:07.384Z,527.00
2023-04-11T09:54:07.378Z,542.00
2023-04-11T09:55:07.446Z,562.00
2023-04-11T09:56:07.495Z,589.00
2023-04-11T09:57:07.496Z,604.00
2023-04-11T09:58:07.527Z,611.00
2023-04-11T09:59:07.553Z,640.00
2023-04-11T10:00:07.563Z,675.00
2023-04-11T10:01:07.618Z,658.00
2023-04-11T10:02:07.705Z,626.00
2023-04-11T10:03:07.761Z,593.00
2023-04-11T10:04:07.653Z,593.00
2023-04-11T10:05:07.748Z,582.00
2023-04-11T10:06:07.593Z,589.00
2023-04-11T10:07:07.558Z,581.00
2023-04-11T10:08:07.564Z,594.00
2023-04-11T10:09:07.531Z,594.00
2023-04-11T10:10:07.533Z,595.00
2023-04-11T10:11:07.523Z,630.00
2023-04-11T10:12:07.520Z,620.00
2023-04-11T10:13:07.519Z,561.00
2023-04-11T10:14:07.502Z,517.00
2023-04-11T10:15:07.466Z,542.00
2023-04-11T10:16:07.529Z,527.00
2023-04-11T10:17:07.484Z,517.00
2023-04-11T10:18:07.513Z,519.00
2023-04-11T10:19:07.431Z,500.00
2023-04-11T10:20:07.437Z,502.00
2023-04-11T10:21:07.457Z,553.00
2023-04-11T10:22:07.420Z,584.00
2023-04-11T10:23:07.419Z,590.00
2023-04-11T10:24:07.402Z,606.00
2023-04-11T10:25:07.415Z,614.00
2023-04-11T10:26:07.407Z,623.00
2023-04-11T10:27:07.412Z,646.00
2023-04-11T10:28:07.491Z,703.00
2023-04-11T10:29:07.432Z,664.00
2023-04-11T10:30:07.453Z,768.00
2023-04-11T10:31:07.595Z,865.00
2023-04-11T10:32:07.424Z,973.00
2023-04-11T10:33:07.450Z,1124.00
2023-04-11T10:34:07.420Z,1127.00
2023-04-11T10:35:07.387Z,1155.00
2023-04-11T10:36:07.411Z,1228.00
2023-04-11T10:37:07.348Z,1327.00
2023-04-11T10:38:07.311Z,1563.00
2023-04-11T10:39:07.415Z,1723.00
2023-04-11T10:40:07.301Z,1752.00
2023-04-11T10:41:07.272Z,1839.00
2023-04-11T10:42:07.280Z,1946.00
2023-04-11T10:43:07.239Z,1938.00
2023-04-11T10:44:07.229Z,1940.00
2023-04-11T10:45:07.198Z,1954.00
2023-04-11T10:46:07.207Z,1983.00
2023-04-11T10:47:07.269Z,2073.00
2023-04-11T10:48:07.175Z,2189.00
2023-04-11T10:49:07.141Z,2291.00
2023-04-11T10:50:07.125Z,2324.00
2023-04-11T10:51:07.089Z,2308.00
2023-04-11T10:52:07.093Z,2408.00
2023-04-11T10:53:07.079Z,2535.00
2023-04-11T10:54:07.094Z,2573.00
2023-04-11T10:55:07.086Z,2652.00
2023-04-11T10:56:07.165Z,2633.00
2023-04-11T10:57:07.159Z,2666.00
2023-04-11T10:58:07.181Z,2674.00
2023-04-11T10:59:07.174Z,2723.00
2023-04-11T11:00:07.197Z,2811.00
2023-04-11T11:01:07.227Z,2857.00
2023-04-11T11:02:07.387Z,2851.00
2023-04-11T11:03:07.386Z,2816.00
2023-04-11T11:04:07.739Z,2863.00
2023-04-11T11:05:07.295Z,2894.00
2023-04-11T11:06:07.246Z,2861.00
2023-04-11T11:07:07.243Z,2896.00
2023-04-11T11:08:07.245Z,2900.00
2023-04-11T11:09:07.240Z,2941.00
2023-04-11T11:10:07.798Z,2932.00
2023-04-11T11:11:07.323Z,2937.00
2023-04-11T11:12:07.213Z,2989.00
2023-04-11T11:13:07.204Z,3065.00
2023-04-11T11:14:07.164Z,3097.00
2023-04-11T11:15:07.218Z,3089.00
2023-04-11T11:16:07.190Z,3067.00
2023-04-11T11:17:07.204Z,3000.00
2023-04-11T11:18:07.147Z,3046.00
2023-04-11T11:19:07.130Z,3140.00
2023-04-11T11:20:07.150Z,3140.00
2023-04-11T11:21:11.302Z,3123.00
2023-04-11T11:22:08.052Z,3140.00
2023-04-11T11:23:07.021Z,3145.00
2023-04-11T11:24:06.964Z,3149.00
2023-04-11T11:25:07.051Z,3183.00
2023-04-11T11:26:06.907Z,3218.00
2023-04-11T11:27:06.989Z,3209.00
2023-04-11T11:28:06.931Z,3211.00
2023-04-11T11:29:06.885Z,3237.00
2023-04-11T11:30:06.810Z,3201.00
2023-04-11T11:31:06.797Z,3205.00
2023-04-11T11:32:06.917Z,3219.00
2023-04-11T11:33:06.851Z,3220.00
2023-04-11T11:34:22.150Z,3207.00
2023-04-11T11:35:07.812Z,3208.00
2023-04-11T11:36:06.762Z,3203.00
2023-04-11T11:37:06.852Z,3176.00
2023-04-11T11:38:06.717Z,3208.00
2023-04-11T11:39:06.647Z,3226.00
2023-04-11T11:40:06.618Z,3268.00
2023-04-11T11:41:06.609Z,3259.00
2023-04-11T11:42:06.560Z,3286.00
2023-04-11T11:43:06.578Z,3277.00
2023-04-11T11:44:06.610Z,3326.00
2023-04-11T11:45:06.647Z,3276.00
2023-04-11T11:46:07.336Z,3248.00
2023-04-11T11:47:06.693Z,3251.00
2023-04-11T11:48:06.786Z,3245.00
2023-04-11T11:49:06.783Z,3239.00
2023-04-11T11:50:06.848Z,3237.00
2023-04-11T11:51:06.857Z,3230.00
2023-04-11T11:52:06.918Z,3200.00
2023-04-11T11:53:07.002Z,3185.00
2023-04-11T11:54:07.004Z,3124.00
2023-04-11T11:55:10.417Z,3145.00
2023-04-11T11:56:07.037Z,3146.00
2023-04-11T11:57:06.966Z,3097.00
2023-04-11T11:58:06.951Z,3076.00
2023-04-11T11:59:06.960Z,3083.00
2023-04-11T12:00:06.901Z,3087.00
2023-04-11T12:01:06.855Z,3075.00
2023-04-11T12:02:06.938Z,3103.00
2023-04-11T12:03:06.893Z,3132.00
2023-04-11T12:04:06.947Z,3146.00
2023-04-11T12:05:07.162Z,3169.00
2023-04-11T12:06:06.681Z,3235.00
2023-04-11T12:07:06.649Z,3259.00
2023-04-11T12:08:06.636Z,3463.00
2023-04-11T12:09:06.598Z,3503.00
2023-04-11T12:10:06.596Z,3513.00
2023-04-11T12:11:06.544Z,3458.00
2023-04-11T12:12:06.522Z,3341.00
2023-04-11T12:13:06.475Z,3321.00
2023-04-11T12:14:06.436Z,3322.00
2023-04-11T12:15:06.396Z,3322.00
2023-04-11T12:16:06.398Z,3309.00